Arlington, Colorado
Current Conditions -  °F | °C
As of 10:53 AM on Monday 24 Nov 2014 (Local Time) from KLHX Reporting Station
Clear Clear  
Wind Chill:   Ceiling: Unl
Heat Index:   Visibility: 10mi
Dew Point: -11°   Wind: 16mph
Humidity: 31%   Direction: 280°W
Pressure: 29.98"   Gusts: NA
Location:  38.34°N, 103.34°W
Report Text: KLHX 241753Z AUTO 28014KT 10SM CLR 06/M11 A2998 RMK AO2 SLP154 T00561106 10056 21056 51008
Loading
Personal Weather Stations






























Interactive Weather Map New forecast layout! Learn more

10-Day Weather Forecast

Advertisements
Track Severe Weather on mobile